createdAt,value
2022-08-15T00:01:27.827Z,1.50
2022-08-15T00:04:02.026Z,1.70
2022-08-15T00:06:40.046Z,1.30
2022-08-15T00:09:16.637Z,1.60
2022-08-15T00:11:50.276Z,1.40
2022-08-15T00:14:31.597Z,1.55
2022-08-15T00:17:00.602Z,1.40
2022-08-15T00:19:32.450Z,1.50
2022-08-15T00:22:05.398Z,1.70
2022-08-15T00:24:47.112Z,1.70
2022-08-15T00:27:18.091Z,1.30
2022-08-15T00:29:44.519Z,1.42
2022-08-15T00:33:02.496Z,1.35
2022-08-15T00:34:59.680Z,1.67
2022-08-15T00:37:26.360Z,1.48
2022-08-15T00:39:55.990Z,1.55
2022-08-15T00:42:29.577Z,1.70
2022-08-15T00:45:07.562Z,1.60
2022-08-15T00:47:41.890Z,1.42
2022-08-15T00:50:32.878Z,1.50
2022-08-15T00:52:57.636Z,1.20
2022-08-15T00:55:27.036Z,1.48
2022-08-15T00:57:57.844Z,1.63
2022-08-15T01:00:34.271Z,1.55
2022-08-15T01:03:06.114Z,1.30
2022-08-15T01:05:41.581Z,1.40
2022-08-15T01:08:08.142Z,1.33
2022-08-15T01:10:36.346Z,1.42
2022-08-15T01:13:07.657Z,1.40
2022-08-15T01:15:45.552Z,1.60
2022-08-15T01:18:22.922Z,1.40
2022-08-15T01:21:04.751Z,1.27
2022-08-15T01:23:54.412Z,1.58
2022-08-15T01:26:42.577Z,1.35
2022-08-15T01:29:09.293Z,1.45
2022-08-15T01:31:37.883Z,1.25
2022-08-15T01:34:17.674Z,1.63
2022-08-15T01:36:45.074Z,1.38
2022-08-15T01:39:12.806Z,1.40
2022-08-15T01:41:54.662Z,1.30
2022-08-15T01:44:32.877Z,1.30
2022-08-15T01:47:15.403Z,1.45
2022-08-15T01:49:58.249Z,1.52
2022-08-15T01:52:59.186Z,1.40
2022-08-15T01:55:15.244Z,1.40
2022-08-15T01:57:42.026Z,1.25
2022-08-15T02:00:11.535Z,1.40
2022-08-15T02:02:47.018Z,1.50
2022-08-15T02:05:13.874Z,1.30
2022-08-15T02:08:32.535Z,1.40
2022-08-15T02:10:28.889Z,1.33
2022-08-15T02:13:02.689Z,1.50
2022-08-15T02:15:31.241Z,1.38
2022-08-15T02:17:58.875Z,1.33
2022-08-15T02:20:27.081Z,1.33
2022-08-15T02:22:54.454Z,1.27
2022-08-15T02:25:22.818Z,1.30
2022-08-15T02:27:52.590Z,1.27
2022-08-15T02:30:20.629Z,1.45
2022-08-15T02:32:49.437Z,1.40
2022-08-15T02:35:17.576Z,1.23
2022-08-15T02:37:58.447Z,1.20
2022-08-15T02:40:45.584Z,1.42
2022-08-15T02:43:13.257Z,1.50
2022-08-15T02:45:56.977Z,1.27
2022-08-15T02:48:36.930Z,1.50
2022-08-15T02:51:10.417Z,1.52
2022-08-15T02:53:44.202Z,1.35
2022-08-15T02:56:15.593Z,1.45
2022-08-15T02:58:43.256Z,1.52
2022-08-15T03:01:15.065Z,1.60
2022-08-15T03:03:43.564Z,1.40
2022-08-15T03:06:16.695Z,1.15
2022-08-15T03:09:01.522Z,1.42
2022-08-15T03:11:39.824Z,1.55
2022-08-15T03:14:34.037Z,1.30
2022-08-15T03:17:02.275Z,1.60
2022-08-15T03:19:28.767Z,1.35
2022-08-15T03:21:56.285Z,1.30
2022-08-15T03:24:23.911Z,1.40
2022-08-15T03:26:50.833Z,1.40
2022-08-15T03:29:21.262Z,1.42
2022-08-15T03:31:49.404Z,1.50
2022-08-15T03:34:16.975Z,1.40
2022-08-15T03:36:52.370Z,1.55
2022-08-15T03:39:20.024Z,1.38
2022-08-15T03:41:46.767Z,1.20
2022-08-15T03:44:25.461Z,1.30
2022-08-15T03:46:55.804Z,1.40
2022-08-15T03:50:24.193Z,1.23
2022-08-15T03:52:09.373Z,1.30
2022-08-15T03:54:38.490Z,1.40
2022-08-15T03:57:05.371Z,1.40
2022-08-15T03:59:39.753Z,1.55
2022-08-15T04:02:26.313Z,1.30
2022-08-15T04:04:59.224Z,1.48
2022-08-15T04:07:26.423Z,1.50
2022-08-15T04:10:39.013Z,1.40
2022-08-15T04:12:58.481Z,1.58
2022-08-15T04:15:30.739Z,1.67
2022-08-15T04:18:00.875Z,1.60
2022-08-15T04:20:32.143Z,1.25
2022-08-15T04:22:59.999Z,1.52
2022-08-15T04:25:40.461Z,1.92
2022-08-15T04:28:28.508Z,1.52
2022-08-15T04:30:58.092Z,1.58
2022-08-15T04:34:44.954Z,1.42
2022-08-15T04:36:19.060Z,1.40
2022-08-15T04:38:50.339Z,1.60
2022-08-15T04:41:35.895Z,1.67
2022-08-15T04:44:04.613Z,1.42
2022-08-15T04:46:31.123Z,1.83
2022-08-15T04:48:57.873Z,1.48
2022-08-15T04:51:35.621Z,1.58
2022-08-15T04:54:04.282Z,1.70
2022-08-15T04:56:47.681Z,1.67
2022-08-15T04:59:34.704Z,1.80
2022-08-15T05:02:54.998Z,1.52
2022-08-15T05:04:54.233Z,1.67
2022-08-15T05:07:27.502Z,1.55
2022-08-15T05:09:58.910Z,1.55
2022-08-15T05:12:33.234Z,1.75
2022-08-15T05:15:00.684Z,1.70
2022-08-15T05:17:32.715Z,2.03
2022-08-15T05:20:16.875Z,1.77
2022-08-15T05:22:54.777Z,2.00
2022-08-15T05:25:22.419Z,1.70
2022-08-15T05:27:54.444Z,1.92
2022-08-15T05:30:21.882Z,1.90
2022-08-15T05:32:49.635Z,1.67
2022-08-15T05:35:16.489Z,2.10
2022-08-15T05:37:45.443Z,1.90
2022-08-15T05:40:23.629Z,2.20
2022-08-15T05:43:06.401Z,1.90
2022-08-15T05:45:45.090Z,2.20
2022-08-15T05:48:20.524Z,2.45
2022-08-15T05:51:00.039Z,2.45
2022-08-15T05:53:33.274Z,2.10
2022-08-15T05:56:20.948Z,2.40
2022-08-15T05:58:50.887Z,2.80
2022-08-15T06:03:53.589Z,2.70
2022-08-15T06:06:26.261Z,2.22
2022-08-15T06:09:01.305Z,2.60
2022-08-15T06:11:38.903Z,2.60
2022-08-15T06:14:20.374Z,2.50
2022-08-15T06:16:52.710Z,3.33
2022-08-15T06:19:34.102Z,2.90
2022-08-15T06:22:10.700Z,2.78
2022-08-15T06:24:44.571Z,2.53
2022-08-15T06:27:11.177Z,3.10
2022-08-15T06:29:40.564Z,3.28
2022-08-15T06:32:22.907Z,3.03
2022-08-15T06:34:57.524Z,2.75
2022-08-15T06:38:00.499Z,2.80
2022-08-15T06:40:42.855Z,3.42
2022-08-15T06:43:13.700Z,2.80
2022-08-15T06:45:48.990Z,2.78
2022-08-15T06:48:55.364Z,3.00
2022-08-15T06:51:07.678Z,3.08
2022-08-15T06:53:41.157Z,3.15
2022-08-15T06:56:20.076Z,3.10
2022-08-15T06:58:54.626Z,3.00
2022-08-15T07:01:26.074Z,3.30
2022-08-15T07:04:37.124Z,3.42
2022-08-15T07:07:09.154Z,3.70
2022-08-15T07:09:56.485Z,3.25
2022-08-15T07:12:36.523Z,3.58
2022-08-15T07:15:15.508Z,3.53
2022-08-15T07:17:53.857Z,4.00
2022-08-15T07:20:41.226Z,3.88
2022-08-15T07:25:34.427Z,4.53
2022-08-15T07:28:06.415Z,4.40
2022-08-15T07:33:00.144Z,4.80
2022-08-15T07:35:28.674Z,4.50
2022-08-15T07:38:02.201Z,4.88
2022-08-15T07:40:56.633Z,4.57
2022-08-15T07:43:34.844Z,4.32
2022-08-15T07:46:23.914Z,4.82
2022-08-15T07:49:08.522Z,4.72
2022-08-15T07:52:00.709Z,4.93
2022-08-15T07:54:34.676Z,4.88
2022-08-15T07:57:51.524Z,4.90
2022-08-15T08:03:19.538Z,5.00
2022-08-15T08:05:59.971Z,5.05
2022-08-15T08:08:51.841Z,4.85
2022-08-15T08:14:41.014Z,5.13
2022-08-15T08:17:04.224Z,4.93
2022-08-15T08:19:43.360Z,5.20
2022-08-15T08:22:27.440Z,4.88
2022-08-15T08:25:08.077Z,4.57
2022-08-15T08:27:35.596Z,4.90
2022-08-15T08:30:44.046Z,4.35
2022-08-15T08:33:13.243Z,4.70
2022-08-15T08:35:45.339Z,4.90
2022-08-15T08:39:03.882Z,4.40
2022-08-15T08:41:29.175Z,4.45
2022-08-15T08:44:17.972Z,4.80
2022-08-15T08:46:50.817Z,4.57
2022-08-15T08:50:31.749Z,5.07
2022-08-15T08:52:30.550Z,4.90
2022-08-15T08:55:01.486Z,5.03
2022-08-15T08:57:42.067Z,5.78
2022-08-15T09:00:12.824Z,5.13
2022-08-15T09:02:57.295Z,4.97
2022-08-15T09:05:52.517Z,4.70
2022-08-15T09:08:32.155Z,4.97
2022-08-15T09:11:01.880Z,5.35
2022-08-15T09:13:37.706Z,4.90
2022-08-15T09:16:16.717Z,5.20
2022-08-15T09:19:12.191Z,4.85
2022-08-15T09:21:39.225Z,4.47
2022-08-15T09:24:37.449Z,4.72
2022-08-15T09:27:08.664Z,4.63
2022-08-15T09:29:57.204Z,4.53
2022-08-15T09:32:44.157Z,4.75
2022-08-15T09:35:10.874Z,4.80
2022-08-15T09:37:56.097Z,4.57
2022-08-15T09:40:58.728Z,4.50
2022-08-15T09:43:30.693Z,4.90
2022-08-15T09:46:41.942Z,5.07
2022-08-15T09:49:11.601Z,4.35
2022-08-15T09:51:50.480Z,4.57
2022-08-15T09:54:28.854Z,4.43
2022-08-15T09:57:17.905Z,4.70
2022-08-15T09:59:44.789Z,4.75
2022-08-15T10:02:37.514Z,5.07
2022-08-15T10:05:15.260Z,4.30
2022-08-15T10:07:46.920Z,4.63
2022-08-15T10:10:16.922Z,4.10
2022-08-15T10:13:19.854Z,4.10
2022-08-15T10:15:51.167Z,4.38
2022-08-15T10:18:42.718Z,4.75
2022-08-15T10:21:22.052Z,4.55
2022-08-15T10:23:58.936Z,4.50
2022-08-15T10:26:34.106Z,4.80
2022-08-15T10:29:04.159Z,4.10
2022-08-15T10:32:33.939Z,4.40
2022-08-15T10:35:02.274Z,4.40
2022-08-15T10:37:33.084Z,4.30
2022-08-15T10:40:13.122Z,4.22
2022-08-15T10:43:03.947Z,4.47
2022-08-15T10:45:45.914Z,4.13
2022-08-15T10:48:16.697Z,4.10
2022-08-15T10:51:23.137Z,4.07
2022-08-15T10:53:56.157Z,4.28
2022-08-15T10:57:00.039Z,4.25
2022-08-15T10:59:22.755Z,4.20
2022-08-15T11:01:52.886Z,4.20
2022-08-15T11:04:50.366Z,4.20
2022-08-15T11:07:18.429Z,4.03
2022-08-15T11:10:21.549Z,3.90
2022-08-15T11:12:53.439Z,4.20
2022-08-15T11:15:27.384Z,3.50
2022-08-15T11:18:22.081Z,4.05
2022-08-15T11:20:53.354Z,4.03
2022-08-15T11:23:31.017Z,4.13
2022-08-15T11:25:58.723Z,3.80
2022-08-15T11:28:37.000Z,4.07
2022-08-15T11:31:17.850Z,3.80
2022-08-15T11:33:46.574Z,3.97
2022-08-15T11:36:18.771Z,3.88
2022-08-15T11:39:10.841Z,4.03
2022-08-15T11:41:38.735Z,3.90
2022-08-15T11:44:17.122Z,3.70
2022-08-15T11:46:50.196Z,3.92
2022-08-15T11:49:24.730Z,3.85
2022-08-15T11:52:40.423Z,3.45
2022-08-15T11:54:37.910Z,3.42
2022-08-15T11:57:22.224Z,3.80
2022-08-15T12:00:00.988Z,3.72
2022-08-15T12:03:04.061Z,4.18
2022-08-15T12:06:08.607Z,4.00
2022-08-15T12:08:32.295Z,3.95
2022-08-15T12:11:02.379Z,3.67
2022-08-15T12:13:35.707Z,3.85
2022-08-15T12:16:06.715Z,3.75
2022-08-15T12:18:51.651Z,3.70
2022-08-15T12:21:21.997Z,3.45
2022-08-15T12:23:56.299Z,3.58
2022-08-15T12:26:39.479Z,3.55
2022-08-15T12:29:11.771Z,3.72
2022-08-15T12:31:42.711Z,3.33
2022-08-15T12:34:27.604Z,3.60
2022-08-15T12:37:04.286Z,3.75
2022-08-15T12:39:33.009Z,3.75
2022-08-15T12:42:49.676Z,3.13
2022-08-15T12:44:48.327Z,3.50
2022-08-15T12:47:15.555Z,3.20
2022-08-15T12:49:47.511Z,3.67
2022-08-15T12:52:15.153Z,3.15
2022-08-15T12:54:45.945Z,3.65
2022-08-15T12:57:19.023Z,3.60
2022-08-15T12:59:49.004Z,3.35
2022-08-15T13:02:48.469Z,3.38
2022-08-15T13:05:02.209Z,3.20
2022-08-15T13:07:31.598Z,3.33
2022-08-15T13:10:00.412Z,3.30
2022-08-15T13:12:46.711Z,3.10
2022-08-15T13:15:13.254Z,3.33
2022-08-15T13:17:46.186Z,3.25
2022-08-15T13:20:37.994Z,3.20
2022-08-15T13:23:42.753Z,2.95
2022-08-15T13:26:29.914Z,2.75
2022-08-15T13:28:59.617Z,2.97
2022-08-15T13:31:27.580Z,3.13
2022-08-15T13:33:54.256Z,2.78
2022-08-15T13:36:29.933Z,3.28
2022-08-15T13:38:57.712Z,3.30
2022-08-15T13:41:47.934Z,3.25
2022-08-15T13:44:30.872Z,3.08
2022-08-15T13:46:58.035Z,3.33
2022-08-15T13:49:25.170Z,3.55
2022-08-15T13:52:24.226Z,3.97
2022-08-15T13:54:49.525Z,3.55
2022-08-15T13:57:17.404Z,4.32
2022-08-15T13:59:44.325Z,3.70
2022-08-15T14:02:35.819Z,3.90
2022-08-15T14:04:59.524Z,3.67
2022-08-15T14:07:50.205Z,3.40
2022-08-15T14:11:12.579Z,3.75
2022-08-15T14:13:13.702Z,4.00
2022-08-15T14:16:33.968Z,3.75
2022-08-15T14:18:51.129Z,3.67
2022-08-15T14:21:26.676Z,4.18
2022-08-15T14:23:56.783Z,4.18
2022-08-15T14:27:11.494Z,4.43
2022-08-15T14:29:16.651Z,3.95
2022-08-15T14:34:54.842Z,3.75
2022-08-15T14:37:23.741Z,4.15
2022-08-15T14:39:50.836Z,3.90
2022-08-15T14:42:21.627Z,4.28
2022-08-15T14:45:00.342Z,3.88
2022-08-15T14:47:27.973Z,3.83
2022-08-15T14:50:53.972Z,4.20
2022-08-15T14:52:53.051Z,3.38
2022-08-15T14:55:20.014Z,3.92
2022-08-15T14:57:55.610Z,3.95
2022-08-15T15:00:31.727Z,4.18
2022-08-15T15:03:00.324Z,3.80
2022-08-15T15:06:05.906Z,3.30
2022-08-15T15:08:19.751Z,3.80
2022-08-15T15:10:47.518Z,3.67
2022-08-15T15:13:15.356Z,3.95
2022-08-15T15:16:07.072Z,3.92
2022-08-15T15:18:46.698Z,3.83
2022-08-15T15:21:20.755Z,3.60
2022-08-15T15:23:51.469Z,3.60
2022-08-15T15:26:19.422Z,3.40
2022-08-15T15:28:47.499Z,3.40
2022-08-15T15:31:18.917Z,3.47
2022-08-15T15:33:47.888Z,3.50
2022-08-15T15:36:27.212Z,3.45
2022-08-15T15:38:58.934Z,3.40
2022-08-15T15:41:28.107Z,3.42
2022-08-15T15:43:55.080Z,3.20
2022-08-15T15:46:21.951Z,3.50
2022-08-15T15:49:01.275Z,3.35
2022-08-15T15:51:28.485Z,3.30
2022-08-15T15:54:00.249Z,3.17
2022-08-15T15:56:37.731Z,3.20
2022-08-15T15:59:07.538Z,3.38
2022-08-15T16:02:44.866Z,3.30
2022-08-15T16:04:21.953Z,3.45
2022-08-15T16:07:03.406Z,3.35
2022-08-15T16:09:31.650Z,3.05
2022-08-15T16:12:58.647Z,3.33
2022-08-15T16:14:59.047Z,3.60
2022-08-15T16:17:25.481Z,3.30
2022-08-15T16:20:41.346Z,2.92
2022-08-15T16:23:06.050Z,3.15
2022-08-15T16:28:12.331Z,3.10
2022-08-15T16:30:42.983Z,3.15
2022-08-15T16:33:29.587Z,3.20
2022-08-15T16:36:23.879Z,3.40
2022-08-15T16:39:05.254Z,3.55
2022-08-15T16:41:36.778Z,3.85
2022-08-15T16:44:15.509Z,3.70
2022-08-15T16:46:42.106Z,3.72
2022-08-15T16:49:25.678Z,3.50
2022-08-15T16:52:12.277Z,3.38
2022-08-15T16:54:58.030Z,3.70
2022-08-15T16:57:28.932Z,3.78
2022-08-15T17:00:09.355Z,4.00
2022-08-15T17:03:04.978Z,3.63
2022-08-15T17:05:38.080Z,3.78
2022-08-15T17:08:21.604Z,3.72
2022-08-15T17:10:57.052Z,3.58
2022-08-15T17:13:36.739Z,3.65
2022-08-15T17:16:47.525Z,3.42
2022-08-15T17:19:17.138Z,3.70
2022-08-15T17:22:06.052Z,3.65
2022-08-15T17:24:54.540Z,3.60
2022-08-15T17:28:02.803Z,3.72
2022-08-15T17:30:56.518Z,3.75
2022-08-15T17:33:38.597Z,3.80
2022-08-15T17:36:12.245Z,3.60
2022-08-15T17:38:40.881Z,3.70
2022-08-15T17:41:09.679Z,3.80
2022-08-15T17:43:59.801Z,3.80
2022-08-15T17:46:46.494Z,3.60
2022-08-15T17:49:17.731Z,3.78
2022-08-15T17:52:06.008Z,3.63
2022-08-15T17:54:51.639Z,3.60
2022-08-15T17:57:25.520Z,3.70
2022-08-15T18:00:31.849Z,3.50
2022-08-15T18:03:01.298Z,3.83
2022-08-15T18:05:31.420Z,3.80
2022-08-15T18:08:02.397Z,3.88
2022-08-15T18:10:45.054Z,3.50
2022-08-15T18:13:14.155Z,3.80
2022-08-15T18:16:01.636Z,3.97
2022-08-15T18:18:32.965Z,3.42
2022-08-15T18:21:04.526Z,3.72
2022-08-15T18:23:53.315Z,3.42
2022-08-15T18:26:53.076Z,3.60
2022-08-15T18:29:12.604Z,3.80
2022-08-15T18:31:40.931Z,3.50
2022-08-15T18:34:36.479Z,3.72
2022-08-15T18:36:57.594Z,3.60
2022-08-15T18:40:00.492Z,3.47
2022-08-15T18:42:29.651Z,3.50
2022-08-15T18:44:57.844Z,3.28
2022-08-15T18:47:29.490Z,3.00
2022-08-15T18:49:56.711Z,3.30
2022-08-15T18:52:25.698Z,3.53
2022-08-15T18:54:59.837Z,3.17
2022-08-15T18:57:45.320Z,3.35
2022-08-15T19:00:16.589Z,3.40
2022-08-15T19:02:49.594Z,3.22
2022-08-15T19:05:27.622Z,3.17
2022-08-15T19:07:58.232Z,3.40
2022-08-15T19:10:30.367Z,3.10
2022-08-15T19:13:02.511Z,3.35
2022-08-15T19:15:40.994Z,3.05
2022-08-15T19:18:07.802Z,2.90
2022-08-15T19:20:36.573Z,2.92
2022-08-15T19:23:07.851Z,3.00
2022-08-15T19:25:46.435Z,2.92
2022-08-15T19:28:40.371Z,2.75
2022-08-15T19:31:12.353Z,2.70
2022-08-15T19:33:47.898Z,3.00
2022-08-15T19:36:31.031Z,2.97
2022-08-15T19:39:07.806Z,3.20
2022-08-15T19:41:39.099Z,3.25
2022-08-15T19:44:21.757Z,2.92
2022-08-15T19:46:59.524Z,2.72
2022-08-15T19:50:05.771Z,3.28
2022-08-15T19:52:52.565Z,2.65
2022-08-15T19:55:40.315Z,2.90
2022-08-15T19:58:29.779Z,2.72
2022-08-15T20:01:00.791Z,2.90
2022-08-15T20:03:32.819Z,2.65
2022-08-15T20:06:27.520Z,2.88
2022-08-15T20:09:06.351Z,3.10
2022-08-15T20:11:34.674Z,3.00
2022-08-15T20:14:46.306Z,3.00
2022-08-15T20:17:17.638Z,2.88
2022-08-15T20:20:01.594Z,2.55
2022-08-15T20:22:35.246Z,3.00
2022-08-15T20:25:16.760Z,2.80
2022-08-15T20:27:47.984Z,2.95
2022-08-15T20:30:27.120Z,3.20
2022-08-15T20:33:07.131Z,2.90
2022-08-15T20:35:43.056Z,2.55
2022-08-15T20:38:11.550Z,2.53
2022-08-15T20:40:47.823Z,2.80
2022-08-15T20:43:21.572Z,2.60
2022-08-15T20:45:52.251Z,2.63
2022-08-15T20:48:46.279Z,2.55
2022-08-15T20:51:26.004Z,2.40
2022-08-15T20:53:53.019Z,2.80
2022-08-15T20:56:34.839Z,2.60
2022-08-15T20:59:04.017Z,2.50
2022-08-15T21:01:36.614Z,2.67
2022-08-15T21:04:22.475Z,2.42
2022-08-15T21:06:57.277Z,2.85
2022-08-15T21:09:45.993Z,2.13
2022-08-15T21:12:25.439Z,2.60
2022-08-15T21:15:42.305Z,2.55
2022-08-15T21:18:08.732Z,2.55
2022-08-15T21:21:02.621Z,2.78
2022-08-15T21:23:32.739Z,2.88
2022-08-15T21:25:59.963Z,2.40
2022-08-15T21:28:33.480Z,2.63
2022-08-15T21:31:25.021Z,2.70
2022-08-15T21:34:00.382Z,2.45
2022-08-15T21:36:36.226Z,2.20
2022-08-15T21:39:07.725Z,2.60
2022-08-15T21:41:56.542Z,2.50
2022-08-15T21:44:30.915Z,2.75
2022-08-15T21:46:57.688Z,2.88
2022-08-15T21:49:38.329Z,2.80
2022-08-15T21:52:16.507Z,2.60
2022-08-15T21:54:55.654Z,2.70
2022-08-15T21:57:27.919Z,2.45
2022-08-15T22:00:20.045Z,2.78
2022-08-15T22:03:03.840Z,2.55
2022-08-15T22:05:34.726Z,2.50
2022-08-15T22:08:11.765Z,2.50
2022-08-15T22:10:47.179Z,2.70
2022-08-15T22:13:14.648Z,2.50
2022-08-15T22:15:43.037Z,2.70
2022-08-15T22:18:28.652Z,3.00
2022-08-15T22:20:57.627Z,2.45
2022-08-15T22:23:24.106Z,2.50
2022-08-15T22:25:58.691Z,2.45
2022-08-15T22:28:34.922Z,2.38
2022-08-15T22:31:43.951Z,2.75
2022-08-15T22:34:05.965Z,2.53
2022-08-15T22:36:32.595Z,2.53
2022-08-15T22:38:59.955Z,2.70
2022-08-15T22:41:28.079Z,2.50
2022-08-15T22:43:57.645Z,2.65
2022-08-15T22:46:35.144Z,2.40
2022-08-15T22:49:02.975Z,2.35
2022-08-15T22:51:35.349Z,2.22
2022-08-15T22:56:45.293Z,2.28
2022-08-15T22:59:18.599Z,2.30
2022-08-15T23:01:53.229Z,2.50
2022-08-15T23:04:39.624Z,2.35
2022-08-15T23:07:21.387Z,2.10
2022-08-15T23:09:55.972Z,2.45
2022-08-15T23:12:31.664Z,2.65
2022-08-15T23:15:07.231Z,2.38
2022-08-15T23:17:40.633Z,2.50
2022-08-15T23:20:09.331Z,2.38
2022-08-15T23:22:37.353Z,2.50
2022-08-15T23:25:11.818Z,2.15
2022-08-15T23:27:42.731Z,2.13
2022-08-15T23:30:44.653Z,2.35
2022-08-15T23:33:01.525Z,2.25
2022-08-15T23:35:29.853Z,1.90
2022-08-15T23:37:58.088Z,2.10
2022-08-15T23:40:33.334Z,2.10
2022-08-15T23:43:01.336Z,2.05
2022-08-15T23:45:42.863Z,2.40
2022-08-15T23:48:10.807Z,2.10
2022-08-15T23:50:42.684Z,2.35
2022-08-15T23:53:19.354Z,2.15
2022-08-15T23:55:59.287Z,2.00
2022-08-15T23:58:43.598Z,2.45
